Time;durP1;ratioP1;P1;durP2;ratioP2;P2;SDS_P1;SDS_P2;PMS_P1;PMS_P2;Temp;Humidity;BMP_temperature;BMP_pressure;BME280_temperature;BME280_humidity;BME280_pressure;Samples;Min_cycle;Max_cycle;Signal;HPM_P1;HPM_P2
2021/12/14 05:00:42;;;;;;;22.23;10.90;;;6.10;99.90;;;;;;5943779;23;20497;-77
2021/12/14 05:03:16;;;;;;;23.87;11.37;;;6.10;99.90;;;;;;4954803;29;20496;-76
2021/12/14 05:05:48;;;;;;;27.97;11.30;;;6.10;99.90;;;;;;4954725;29;20584;-76
2021/12/14 05:11:06;;;;;;;24.43;11.40;;;6.10;99.90;;;;;;4954633;28;20452;-76
2021/12/14 05:13:39;;;;;;;23.97;10.87;;;6.10;99.90;;;;;;4954782;29;20472;-76
2021/12/14 05:16:09;;;;;;;21.13;10.90;;;6.10;99.90;;;;;;4954990;29;20540;-77
2021/12/14 05:18:36;;;;;;;26.83;12.37;;;6.10;99.90;;;;;;4955089;29;20884;-76
2021/12/14 05:21:03;;;;;;;23.27;10.40;;;6.10;99.90;;;;;;4954296;28;20564;-76
2021/12/14 05:23:33;;;;;;;23.00;12.13;;;6.10;99.90;;;;;;4954719;29;20460;-77
2021/12/14 05:26:03;;;;;;;20.67;10.73;;;6.10;99.90;;;;;;4954274;29;20515;-76
2021/12/14 05:28:32;;;;;;;28.33;12.63;;;6.10;99.90;;;;;;4948394;29;20799;-77
2021/12/14 05:30:59;;;;;;;30.17;13.10;;;6.10;99.90;;;;;;4935280;29;20477;-77
2021/12/14 05:33:31;;;;;;;25.80;12.23;;;6.10;99.90;;;;;;4935539;29;20554;-78
2021/12/14 05:36:01;;;;;;;27.80;12.20;;;6.10;99.90;;;;;;4935351;29;20537;-78
2021/12/14 05:38:42;;;;;;;29.33;11.77;;;6.10;99.90;;;;;;4942861;29;20460;-73
2021/12/14 05:43:06;;;;;;;29.53;11.23;;;6.10;99.90;;;;;;4953962;29;20557;-73
2021/12/14 05:43:56;;;;;;;27.50;10.70;;;6.10;99.90;;;;;;4954292;29;20445;-73
2021/12/14 05:46:24;;;;;;;29.13;10.70;;;6.10;99.90;;;;;;4954231;29;20499;-73
2021/12/14 05:48:57;;;;;;;28.90;11.70;;;6.10;99.90;;;;;;4953937;28;20544;-74
2021/12/14 05:51:25;;;;;;;23.03;11.60;;;6.00;99.90;;;;;;4953922;29;20564;-74
2021/12/14 05:53:51;;;;;;;27.87;11.83;;;6.10;99.90;;;;;;4954215;29;20540;-75
2021/12/14 05:56:22;;;;;;;27.93;10.90;;;6.10;99.90;;;;;;4954171;29;20949;-74
2021/12/14 05:58:50;;;;;;;29.60;11.33;;;6.00;99.90;;;;;;4954019;29;20539;-74
2021/12/14 06:01:20;;;;;;;28.50;12.53;;;6.00;99.90;;;;;;4954045;28;20571;-74
2021/12/14 06:03:53;;;;;;;31.47;12.23;;;6.00;99.90;;;;;;4945201;29;20552;-74
2021/12/14 06:06:23;;;;;;;30.03;13.53;;;6.00;99.90;;;;;;4937191;29;20577;-74
2021/12/14 06:08:50;;;;;;;33.57;13.83;;;6.00;99.90;;;;;;4934519;29;20457;-73
2021/12/14 06:11:21;;;;;;;29.10;13.07;;;6.00;99.90;;;;;;4934696;29;20473;-73
2021/12/14 06:13:49;;;;;;;24.50;11.20;;;6.00;99.90;;;;;;4934914;29;20488;-73
2021/12/14 06:16:27;;;;;;;30.00;12.87;;;6.00;99.90;;;;;;4935328;29;20460;-73
2021/12/14 06:19:14;;;;;;;27.63;11.50;;;6.00;99.90;;;;;;4935140;29;20464;-73
2021/12/14 06:21:41;;;;;;;25.90;12.13;;;6.00;99.90;;;;;;4934715;29;20481;-73
2021/12/14 06:24:11;;;;;;;27.07;12.80;;;6.00;99.90;;;;;;4934281;29;20548;-73
2021/12/14 06:26:40;;;;;;;34.60;12.10;;;6.00;99.90;;;;;;4934318;29;20584;-73
2021/12/14 06:29:10;;;;;;;29.67;12.00;;;6.00;99.90;;;;;;4933149;29;20525;-73
2021/12/14 06:31:37;;;;;;;28.63;12.27;;;6.00;99.90;;;;;;4933313;29;20506;-74
2021/12/14 06:34:21;;;;;;;30.30;13.07;;;6.00;99.90;;;;;;4933661;29;20457;-73
2021/12/14 06:37:28;;;;;;;27.90;13.07;;;6.00;99.90;;;;;;4933634;29;20540;-73
2021/12/14 06:40:18;;;;;;;29.50;12.80;;;6.00;99.90;;;;;;4933146;29;21122;-73
2021/12/14 06:42:48;;;;;;;27.60;11.67;;;6.00;99.90;;;;;;4933447;29;20503;-73
2021/12/14 06:45:19;;;;;;;27.53;12.87;;;5.90;99.90;;;;;;4933583;29;20525;-73
2021/12/14 06:47:49;;;;;;;32.60;12.33;;;5.80;99.90;;;;;;4932985;29;20496;-73
2021/12/14 06:50:22;;;;;;;27.20;12.60;;;5.70;99.90;;;;;;4932879;29;20485;-73
2021/12/14 06:52:57;;;;;;;28.90;11.80;;;5.70;99.90;;;;;;4933313;29;20536;-73
2021/12/14 06:55:27;;;;;;;30.40;13.37;;;5.70;99.90;;;;;;4933430;29;20548;-73
2021/12/14 06:58:05;;;;;;;27.93;12.03;;;5.70;99.90;;;;;;4933772;29;20561;-73
2021/12/14 07:00:32;;;;;;;27.93;11.83;;;5.60;99.90;;;;;;4935745;29;20460;-74
2021/12/14 07:02:59;;;;;;;30.73;11.53;;;5.60;99.90;;;;;;4938016;29;20489;-73
2021/12/14 07:05:29;;;;;;;41.30;13.00;;;5.70;99.90;;;;;;4937758;29;20865;-73
2021/12/14 07:07:57;;;;;;;31.87;12.37;;;5.70;99.90;;;;;;4937924;29;20544;-73
2021/12/14 07:10:25;;;;;;;34.97;13.57;;;5.70;99.90;;;;;;4937441;29;21337;-73
2021/12/14 07:12:52;;;;;;;39.17;13.13;;;5.70;99.90;;;;;;4938069;29;21317;-73
2021/12/14 07:15:23;;;;;;;38.57;14.10;;;5.70;99.90;;;;;;4937628;29;20536;-74
2021/12/14 07:17:59;;;;;;;30.20;12.77;;;5.70;99.90;;;;;;4937809;29;20457;-74
2021/12/14 07:20:32;;;;;;;36.67;14.20;;;5.70;99.90;;;;;;4937421;29;20489;-73
2021/12/14 07:23:02;;;;;;;34.93;14.53;;;5.70;99.90;;;;;;4937535;29;20445;-74
2021/12/14 07:25:31;;;;;;;32.40;14.57;;;5.70;99.90;;;;;;4937540;29;20479;-74
2021/12/14 07:28:00;;;;;;;31.33;13.00;;;5.70;99.90;;;;;;4937464;29;20545;-74
2021/12/14 07:30:32;;;;;;;29.27;13.60;;;5.70;99.90;;;;;;4937201;29;20544;-74
2021/12/14 07:33:02;;;;;;;26.43;11.80;;;5.70;99.90;;;;;;4937510;29;20505;-73
2021/12/14 07:35:47;;;;;;;27.80;12.43;;;5.70;99.90;;;;;;4937340;29;20544;-74
2021/12/14 07:38:34;;;;;;;26.50;11.90;;;5.60;99.90;;;;;;4937498;29;20465;-74
2021/12/14 07:41:13;;;;;;;26.40;11.93;;;5.60;99.90;;;;;;4937127;29;20929;-73
2021/12/14 07:43:46;;;;;;;25.67;11.73;;;5.60;99.90;;;;;;4935884;29;20743;-73
2021/12/14 07:46:25;;;;;;;28.77;11.97;;;5.60;99.90;;;;;;4936102;29;20524;-73
2021/12/14 07:48:55;;;;;;;26.40;12.33;;;5.60;99.90;;;;;;4936575;29;20544;-73
2021/12/14 07:51:25;;;;;;;23.10;11.70;;;5.60;99.90;;;;;;4937046;29;20497;-73
2021/12/14 07:53:55;;;;;;;22.87;11.23;;;5.60;99.90;;;;;;4936799;29;20468;-73
2021/12/14 07:56:31;;;;;;;27.57;12.80;;;5.70;99.90;;;;;;4936392;29;20512;-73
2021/12/14 07:58:59;;;;;;;32.90;13.13;;;5.70;99.90;;;;;;4936909;29;20449;-74
2021/12/14 08:01:26;;;;;;;31.47;13.70;;;5.70;99.90;;;;;;4936733;29;20510;-73
2021/12/14 08:04:03;;;;;;;26.53;12.90;;;5.70;99.90;;;;;;4936744;29;20961;-75
2021/12/14 08:06:45;;;;;;;28.43;11.93;;;5.80;99.90;;;;;;4936764;29;20493;-74
2021/12/14 08:09:17;;;;;;;27.07;12.03;;;5.80;99.90;;;;;;4936623;29;20473;-74
2021/12/14 08:11:50;;;;;;;28.10;12.00;;;5.80;99.90;;;;;;4936844;29;20489;-74
2021/12/14 08:14:21;;;;;;;29.37;11.43;;;5.80;99.90;;;;;;4936918;29;20923;-74
2021/12/14 08:16:54;;;;;;;32.53;12.80;;;5.80;99.90;;;;;;4947682;29;20882;-75
2021/12/14 08:19:31;;;;;;;30.83;12.33;;;5.80;99.90;;;;;;4955464;29;20481;-75
2021/12/14 08:22:03;;;;;;;26.47;11.13;;;5.80;99.90;;;;;;4956083;29;20483;-73
2021/12/14 08:24:30;;;;;;;29.30;11.57;;;5.80;99.90;;;;;;4955445;28;20569;-73
2021/12/14 08:27:00;;;;;;;30.40;12.93;;;5.90;99.90;;;;;;4955934;29;20493;-74
2021/12/14 08:29:30;;;;;;;28.07;12.43;;;5.90;99.90;;;;;;4950545;29;20454;-73
2021/12/14 08:32:03;;;;;;;27.57;12.17;;;5.90;99.90;;;;;;4936444;29;20582;-73
2021/12/14 08:34:34;;;;;;;27.07;10.60;;;5.90;99.90;;;;;;4935852;29;20882;-73
2021/12/14 08:37:08;;;;;;;24.20;11.33;;;5.90;99.90;;;;;;4935422;29;20537;-74
2021/12/14 08:39:41;;;;;;;31.33;12.50;;;5.90;99.90;;;;;;4935183;29;20462;-73
2021/12/14 08:42:14;;;;;;;24.77;12.17;;;5.90;99.90;;;;;;4934891;29;20469;-73
2021/12/14 08:44:51;;;;;;;27.90;12.53;;;5.90;99.90;;;;;;4934270;29;20458;-73
2021/12/14 08:47:25;;;;;;;27.30;12.20;;;5.70;99.90;;;;;;4935145;29;20525;-73
2021/12/14 08:49:53;;;;;;;33.50;14.17;;;5.70;99.90;;;;;;4934893;29;20537;-73
2021/12/14 08:52:22;;;;;;;32.40;13.40;;;5.60;99.90;;;;;;4935265;29;20966;-73
2021/12/14 08:54:49;;;;;;;28.97;13.60;;;5.70;99.90;;;;;;4934725;29;20481;-73
2021/12/14 08:57:18;;;;;;;30.17;13.57;;;5.70;99.90;;;;;;4935138;29;20537;-73
2021/12/14 08:59:49;;;;;;;33.40;13.97;;;5.70;99.90;;;;;;4934719;29;20950;-73
2021/12/14 09:02:18;;;;;;;32.40;15.00;;;5.70;99.90;;;;;;4935006;29;20581;-73
2021/12/14 09:04:50;;;;;;;28.43;13.90;;;5.70;99.90;;;;;;4934950;29;20522;-73
2021/12/14 09:07:26;;;;;;;31.73;13.13;;;5.80;99.90;;;;;;4934387;29;20577;-73
2021/12/14 09:09:55;;;;;;;32.70;14.37;;;5.80;99.90;;;;;;4934388;29;20488;-74
2021/12/14 09:12:27;;;;;;;30.70;13.37;;;5.80;99.90;;;;;;4945099;29;20504;-73
2021/12/14 09:14:57;;;;;;;28.00;13.70;;;5.90;99.90;;;;;;4953817;29;20449;-74
2021/12/14 09:17:24;;;;;;;27.60;12.83;;;5.90;99.90;;;;;;4953763;29;20473;-73
2021/12/14 09:19:55;;;;;;;29.80;13.87;;;6.00;99.90;;;;;;4953324;28;20556;-73
2021/12/14 09:22:25;;;;;;;28.07;14.00;;;6.00;99.90;;;;;;4953245;28;20912;-74
2021/12/14 09:24:54;;;;;;;26.87;12.60;;;6.00;99.90;;;;;;4953753;29;20488;-74
2021/12/14 09:27:26;;;;;;;32.90;13.60;;;6.00;99.90;;;;;;4953396;29;20505;-73
2021/12/14 09:29:55;;;;;;;27.77;13.43;;;6.00;99.90;;;;;;4953336;29;20543;-74
2021/12/14 09:32:27;;;;;;;28.43;14.20;;;6.00;99.90;;;;;;4953256;29;20567;-73
2021/12/14 09:34:56;;;;;;;30.07;13.30;;;6.00;99.90;;;;;;4954224;29;20496;-73
2021/12/14 09:37:24;;;;;;;33.17;16.20;;;6.10;99.90;;;;;;4941792;29;20533;-73
2021/12/14 09:39:53;;;;;;;28.60;14.57;;;6.00;99.90;;;;;;4933990;29;20497;-73
2021/12/14 09:42:25;;;;;;;30.07;13.20;;;6.00;99.90;;;;;;4934180;29;20581;-73
2021/12/14 09:44:54;;;;;;;27.07;13.80;;;6.10;99.90;;;;;;4933949;29;20458;-73
2021/12/14 09:47:26;;;;;;;31.60;16.20;;;6.10;99.90;;;;;;4933879;29;20493;-73
2021/12/14 09:49:54;;;;;;;30.70;15.27;;;6.10;99.90;;;;;;4933947;29;20544;-73
2021/12/14 09:52:25;;;;;;;31.60;14.83;;;6.20;99.90;;;;;;4933880;29;20477;-73
2021/12/14 09:54:54;;;;;;;27.97;13.87;;;6.20;99.90;;;;;;4933986;29;20457;-73
2021/12/14 09:57:25;;;;;;;36.13;15.80;;;6.20;99.90;;;;;;4933582;29;20538;-73
2021/12/14 09:59:55;;;;;;;33.60;15.27;;;6.20;99.90;;;;;;4933659;29;20540;-73
2021/12/14 10:02:26;;;;;;;33.80;14.97;;;6.20;99.90;;;;;;4933567;29;20873;-73
2021/12/14 10:04:57;;;;;;;34.70;15.80;;;6.20;99.90;;;;;;4933802;29;20541;-73
2021/12/14 10:07:24;;;;;;;36.17;15.37;;;6.30;99.90;;;;;;4938255;29;20584;-72
2021/12/14 10:09:54;;;;;;;40.10;14.90;;;6.20;99.90;;;;;;4950662;29;20544;-71
2021/12/14 10:12:49;;;;;;;32.23;15.53;;;6.20;99.90;;;;;;4950734;29;20548;-72
2021/12/14 10:15:21;;;;;;;38.37;15.50;;;6.20;99.90;;;;;;4934564;29;21015;-72
2021/12/14 10:17:50;;;;;;;41.57;17.30;;;6.20;99.90;;;;;;4934778;29;20484;-72
2021/12/14 10:20:20;;;;;;;36.83;16.60;;;6.10;99.90;;;;;;4933980;29;20882;-72
2021/12/14 10:22:51;;;;;;;35.17;15.07;;;6.20;99.90;;;;;;4934717;29;20557;-71
2021/12/14 10:25:20;;;;;;;30.83;16.67;;;6.30;99.90;;;;;;4934590;29;20450;-73
2021/12/14 10:27:49;;;;;;;33.80;16.07;;;6.20;99.90;;;;;;4934474;29;21025;-73
2021/12/14 10:30:20;;;;;;;38.47;18.40;;;6.30;99.90;;;;;;4934282;29;20462;-73
2021/12/14 10:32:48;;;;;;;32.03;16.73;;;6.30;99.90;;;;;;4934493;29;20462;-73
2021/12/14 10:35:21;;;;;;;29.70;15.33;;;6.40;99.90;;;;;;4939388;29;20485;-73
2021/12/14 10:37:54;;;;;;;27.63;14.63;;;6.30;99.90;;;;;;4938704;29;20454;-74
2021/12/14 10:43:15;;;;;;;36.23;17.00;;;6.30;99.90;;;;;;4938317;29;20489;-73
2021/12/14 10:45:48;;;;;;;34.47;15.43;;;6.30;99.90;;;;;;4938599;29;20450;-73
2021/12/14 10:48:17;;;;;;;32.73;16.33;;;6.30;99.90;;;;;;4939425;29;20500;-74
2021/12/14 10:50:46;;;;;;;32.87;16.13;;;6.20;99.90;;;;;;4939397;29;20484;-73
2021/12/14 10:53:14;;;;;;;34.50;16.73;;;6.20;99.90;;;;;;4939859;29;20529;-73
2021/12/14 10:55:47;;;;;;;34.87;16.73;;;6.20;99.90;;;;;;4939559;29;20504;-73
2021/12/14 10:58:17;;;;;;;35.73;18.07;;;6.20;99.90;;;;;;4939947;29;20485;-73
2021/12/14 11:00:49;;;;;;;36.87;19.20;;;6.20;99.90;;;;;;4939334;29;20473;-73
2021/12/14 11:03:18;;;;;;;38.10;17.30;;;6.20;99.90;;;;;;4939604;29;20462;-73
2021/12/14 11:05:51;;;;;;;35.80;17.53;;;6.20;99.90;;;;;;4939573;29;20457;-73
2021/12/14 11:11:05;;;;;;;34.07;16.90;;;6.20;99.90;;;;;;4939428;29;20509;-74
2021/12/14 11:13:45;;;;;;;38.00;18.93;;;6.20;99.90;;;;;;4939816;29;20517;-74
2021/12/14 11:16:21;;;;;;;40.73;18.37;;;6.20;99.90;;;;;;4938893;29;20484;-74
2021/12/14 11:18:49;;;;;;;38.60;18.77;;;6.30;99.90;;;;;;4937740;29;20438;-69
2021/12/14 11:21:21;;;;;;;36.03;19.13;;;6.30;99.90;;;;;;4937415;29;20470;-69
2021/12/14 11:23:51;;;;;;;37.77;19.93;;;6.30;99.90;;;;;;4937235;29;21017;-69
2021/12/14 11:26:23;;;;;;;38.53;18.60;;;6.40;99.90;;;;;;4937535;29;20950;-70
2021/12/14 11:28:55;;;;;;;32.67;16.93;;;6.40;99.90;;;;;;4937400;29;20478;-73
2021/12/14 11:31:25;;;;;;;37.40;18.70;;;6.50;99.90;;;;;;4937437;29;20505;-74
2021/12/14 11:33:58;;;;;;;40.77;19.73;;;6.40;99.90;;;;;;4937306;29;20791;-74
2021/12/14 11:36:31;;;;;;;39.73;18.77;;;6.40;99.90;;;;;;4937275;29;20945;-74
2021/12/14 11:39:06;;;;;;;43.07;24.23;;;6.40;99.90;;;;;;4937196;29;20462;-74
2021/12/14 11:41:44;;;;;;;38.77;19.93;;;6.50;99.90;;;;;;4937066;29;20937;-73
2021/12/14 11:44:20;;;;;;;40.60;19.17;;;6.50;99.90;;;;;;4937267;29;20544;-74
2021/12/14 11:46:56;;;;;;;35.70;18.97;;;6.50;99.90;;;;;;4936861;29;20536;-73
2021/12/14 11:49:38;;;;;;;42.87;19.30;;;6.50;99.90;;;;;;4936766;29;20520;-74
2021/12/14 11:52:05;;;;;;;40.47;18.53;;;6.60;99.90;;;;;;4936961;29;21057;-73
2021/12/14 11:54:43;;;;;;;41.30;19.70;;;6.50;99.90;;;;;;4937058;29;20557;-73
2021/12/14 11:57:11;;;;;;;36.33;19.50;;;6.50;99.90;;;;;;4937078;29;20492;-74
2021/12/14 11:59:40;;;;;;;38.07;18.60;;;6.60;99.90;;;;;;4936672;29;20893;-75
2021/12/14 12:02:08;;;;;;;35.17;19.60;;;6.70;99.90;;;;;;4936588;29;20579;-72
2021/12/14 12:04:42;;;;;;;34.67;18.83;;;6.80;99.90;;;;;;4936688;29;20536;-73
2021/12/14 12:09:59;;;;;;;32.23;18.63;;;6.80;99.90;;;;;;4936420;29;20440;-74
2021/12/14 12:12:28;;;;;;;30.00;16.40;;;6.80;99.90;;;;;;4936496;29;20469;-74
2021/12/14 12:15:00;;;;;;;37.37;18.47;;;6.90;99.90;;;;;;4936140;29;20461;-74
2021/12/14 12:17:34;;;;;;;32.47;18.70;;;6.80;99.90;;;;;;4935729;29;20544;-74
2021/12/14 12:20:13;;;;;;;30.33;15.93;;;6.80;99.90;;;;;;4935279;29;20541;-74
2021/12/14 12:22:43;;;;;;;27.03;15.10;;;6.70;99.90;;;;;;4935476;29;20489;-74
2021/12/14 12:25:11;;;;;;;30.40;16.20;;;6.70;99.90;;;;;;4936141;29;20542;-74
2021/12/14 12:27:41;;;;;;;26.40;14.67;;;6.60;99.90;;;;;;4935410;29;20536;-74
2021/12/14 12:30:35;;;;;;;31.83;16.17;;;6.60;99.90;;;;;;4935434;29;20460;-74
2021/12/14 12:33:09;;;;;;;29.40;15.93;;;6.60;99.90;;;;;;4935457;29;20833;-74
2021/12/14 12:35:40;;;;;;;32.87;18.27;;;6.50;99.90;;;;;;4935213;29;20545;-74
2021/12/14 12:38:27;;;;;;;29.10;15.80;;;6.60;99.90;;;;;;4935289;29;20942;-74
2021/12/14 12:40:59;;;;;;;30.13;19.00;;;6.60;99.90;;;;;;4935065;29;20556;-74
2021/12/14 12:43:32;;;;;;;29.73;17.83;;;6.60;99.90;;;;;;4935303;29;20554;-74
2021/12/14 12:46:10;;;;;;;31.10;17.93;;;6.60;99.90;;;;;;4935117;29;20894;-74
2021/12/14 12:48:42;;;;;;;29.97;15.73;;;6.70;99.90;;;;;;4934931;29;20493;-74
2021/12/14 12:51:10;;;;;;;28.20;16.13;;;6.70;99.90;;;;;;4934838;29;20528;-73
2021/12/14 12:53:37;;;;;;;29.53;15.70;;;6.70;99.90;;;;;;4934933;29;20887;-74
2021/12/14 12:56:07;;;;;;;27.73;15.23;;;6.70;99.90;;;;;;4934651;29;20552;-73
2021/12/14 12:58:34;;;;;;;27.20;16.07;;;6.70;99.90;;;;;;4934524;29;20489;-73
2021/12/14 13:01:03;;;;;;;33.80;18.50;;;6.70;99.90;;;;;;4937130;29;20568;-74
2021/12/14 13:03:35;;;;;;;28.30;15.10;;;6.80;99.90;;;;;;4935876;29;20553;-73
2021/12/14 13:06:05;;;;;;;24.63;15.07;;;6.80;99.90;;;;;;4935708;29;20464;-74
2021/12/14 13:08:36;;;;;;;32.70;15.00;;;6.80;99.90;;;;;;4935814;29;20489;-74
2021/12/14 13:11:06;;;;;;;29.43;15.10;;;6.70;99.90;;;;;;4935293;29;20556;-74
2021/12/14 13:13:36;;;;;;;25.53;14.70;;;6.80;99.90;;;;;;4935881;29;20541;-74
2021/12/14 13:16:12;;;;;;;27.40;15.87;;;6.90;99.90;;;;;;4935534;29;20497;-74
2021/12/14 13:18:46;;;;;;;27.03;14.47;;;6.80;99.90;;;;;;4935443;29;20488;-74
2021/12/14 13:21:24;;;;;;;31.83;14.33;;;6.70;99.90;;;;;;4935344;29;20477;-74
2021/12/14 13:24:00;;;;;;;31.03;14.73;;;6.70;99.90;;;;;;4935425;29;20553;-74
2021/12/14 13:26:37;;;;;;;31.27;15.37;;;6.70;99.90;;;;;;4935519;29;20469;-74
2021/12/14 13:29:24;;;;;;;31.63;15.07;;;6.70;99.90;;;;;;4934998;29;20584;-74
2021/12/14 13:31:54;;;;;;;34.40;16.33;;;6.60;99.90;;;;;;4935031;29;20556;-75
2021/12/14 13:34:26;;;;;;;38.77;16.93;;;6.70;99.90;;;;;;4935421;29;20540;-74
2021/12/14 13:36:56;;;;;;;32.50;15.93;;;6.70;99.90;;;;;;4935334;29;20545;-74
2021/12/14 13:39:24;;;;;;;29.53;14.30;;;6.70;99.90;;;;;;4934955;29;20481;-74
2021/12/14 13:42:30;;;;;;;30.00;14.90;;;6.70;99.90;;;;;;4935043;29;20569;-74
2021/12/14 13:44:57;;;;;;;33.47;15.87;;;6.70;99.90;;;;;;4935337;29;20458;-74
2021/12/14 13:47:29;;;;;;;46.83;23.83;;;6.60;99.90;;;;;;4935209;29;20548;-74
2021/12/14 13:49:59;;;;;;;547.03;312.80;;;6.70;99.90;;;;;;4934958;29;20486;-74
2021/12/14 13:52:27;;;;;;;76.90;39.63;;;6.70;99.90;;;;;;4934888;29;21081;-74
2021/12/14 13:55:18;;;;;;;38.93;17.77;;;6.70;99.90;;;;;;4934897;29;20536;-74
2021/12/14 13:57:48;;;;;;;44.30;17.53;;;6.60;99.90;;;;;;4934969;29;20537;-74
2021/12/14 14:00:19;;;;;;;46.30;18.40;;;6.60;99.90;;;;;;4934909;29;20548;-73
2021/12/14 14:02:49;;;;;;;48.13;18.33;;;6.60;99.90;;;;;;4934851;29;20536;-74
2021/12/14 14:05:17;;;;;;;52.87;19.20;;;6.60;99.90;;;;;;4934667;29;20549;-73
2021/12/14 14:07:45;;;;;;;50.63;19.80;;;6.60;99.90;;;;;;4939844;28;20520;-73
2021/12/14 14:10:12;;;;;;;45.77;19.93;;;6.50;99.90;;;;;;4937424;29;20985;-73
2021/12/14 14:12:51;;;;;;;54.23;24.53;;;6.50;99.90;;;;;;4934669;29;20473;-73
2021/12/14 14:15:22;;;;;;;55.00;22.43;;;6.50;99.90;;;;;;4934683;29;21045;-73
2021/12/14 14:17:54;;;;;;;62.20;21.70;;;6.50;99.90;;;;;;4934488;29;20536;-74
2021/12/14 14:20:28;;;;;;;54.63;21.03;;;6.50;99.90;;;;;;4934477;29;20502;-74
2021/12/14 14:23:06;;;;;;;58.93;21.67;;;6.40;99.90;;;;;;4934728;29;20472;-74
2021/12/14 14:25:34;;;;;;;59.97;23.53;;;6.40;99.90;;;;;;4934560;29;20461;-74
2021/12/14 14:28:04;;;;;;;68.63;23.40;;;6.40;99.90;;;;;;4934123;29;20533;-74
2021/12/14 14:30:43;;;;;;;67.77;23.10;;;6.40;99.90;;;;;;4933749;29;20541;-74
2021/12/14 14:33:19;;;;;;;61.43;22.40;;;6.40;99.90;;;;;;4934845;29;20550;-73
2021/12/14 14:35:50;;;;;;;64.23;23.70;;;6.40;99.90;;;;;;4934531;29;20465;-74
2021/12/14 14:38:36;;;;;;;64.37;24.50;;;6.40;99.90;;;;;;4934389;29;20482;-74
2021/12/14 14:41:20;;;;;;;65.73;23.70;;;6.40;99.90;;;;;;4934302;29;20481;-74
2021/12/14 14:44:00;;;;;;;64.40;24.43;;;6.50;99.90;;;;;;4934209;29;20910;-73
2021/12/14 14:46:51;;;;;;;87.30;27.13;;;6.50;99.90;;;;;;4934261;29;20496;-73
2021/12/14 14:49:23;;;;;;;69.63;24.87;;;6.40;99.90;;;;;;4933978;29;21029;-74
2021/12/14 14:51:53;;;;;;;75.47;27.90;;;6.50;99.90;;;;;;4934027;29;20480;-74
2021/12/14 14:54:48;;;;;;;67.73;26.97;;;6.50;99.90;;;;;;4934236;29;20489;-74
2021/12/14 14:57:45;;;;;;;74.10;28.40;;;6.60;99.90;;;;;;4899425;29;21133;-74
2021/12/14 15:00:38;;;;;;;70.70;27.10;;;6.60;99.90;;;;;;4934146;29;20492;-74
2021/12/14 15:03:11;;;;;;;61.10;26.00;;;6.60;99.90;;;;;;4934478;29;20469;-74
2021/12/14 15:05:47;;;;;;;69.03;28.17;;;6.70;99.90;;;;;;4934127;29;20548;-74
2021/12/14 15:08:23;;;;;;;80.70;40.90;;;6.70;99.90;;;;;;4934361;29;20592;-75
2021/12/14 15:10:56;;;;;;;69.00;30.40;;;6.60;99.90;;;;;;4934195;29;20469;-75
2021/12/14 15:13:31;;;;;;;70.10;30.43;;;6.70;99.90;;;;;;4935237;29;20489;-75
2021/12/14 15:16:03;;;;;;;71.80;37.60;;;6.70;99.90;;;;;;4934567;29;20449;-74
2021/12/14 15:18:45;;;;;;;59.77;28.07;;;6.70;99.90;;;;;;4934074;29;20536;-74
2021/12/14 15:21:28;;;;;;;55.93;23.87;;;6.70;99.90;;;;;;4935541;29;20473;-74
2021/12/14 15:23:55;;;;;;;45.90;20.60;;;6.70;99.90;;;;;;4937137;29;20508;-75
2021/12/14 15:26:23;;;;;;;43.93;21.83;;;6.60;99.90;;;;;;4936229;29;20544;-74
2021/12/14 15:29:26;;;;;;;48.33;20.47;;;6.60;99.90;;;;;;4936234;29;20540;-75
2021/12/14 15:32:19;;;;;;;40.27;19.53;;;6.60;99.90;;;;;;4936352;29;20500;-74
2021/12/14 15:34:56;;;;;;;49.27;22.43;;;6.60;99.90;;;;;;4936312;29;20445;-74
2021/12/14 15:37:39;;;;;;;42.00;19.67;;;6.60;99.90;;;;;;4936294;29;20453;-74
2021/12/14 15:40:48;;;;;;;45.43;22.17;;;6.70;99.90;;;;;;4936078;29;20497;-74
2021/12/14 15:43:20;;;;;;;44.30;20.67;;;6.70;99.90;;;;;;4936109;29;20874;-74
2021/12/14 15:45:49;;;;;;;43.87;19.40;;;6.60;99.90;;;;;;4936423;29;20477;-74
2021/12/14 15:48:19;;;;;;;39.70;18.87;;;6.60;99.90;;;;;;4936164;29;20507;-74
2021/12/14 15:51:07;;;;;;;38.43;18.30;;;6.50;99.90;;;;;;4935971;29;20560;-75
2021/12/14 15:53:38;;;;;;;34.50;17.37;;;6.50;99.90;;;;;;4935754;29;21034;-75
2021/12/14 15:56:24;;;;;;;34.80;17.07;;;6.50;99.90;;;;;;4936211;29;20458;-74
2021/12/14 15:58:57;;;;;;;32.80;17.40;;;6.50;99.90;;;;;;4935878;29;20481;-74
2021/12/14 16:01:28;;;;;;;30.83;16.60;;;6.40;99.90;;;;;;4935858;29;21021;-77
2021/12/14 16:03:58;;;;;;;31.93;17.40;;;6.50;99.90;;;;;;4935840;29;20975;-76
2021/12/14 16:06:26;;;;;;;33.10;16.80;;;6.50;99.90;;;;;;4936410;29;20450;-77
2021/12/14 16:08:55;;;;;;;26.57;15.30;;;6.50;99.90;;;;;;4935481;29;20576;-76
2021/12/14 16:11:33;;;;;;;29.37;15.30;;;6.50;99.90;;;;;;4935788;29;20576;-76
2021/12/14 16:16:49;;;;;;;27.10;14.07;;;6.60;99.90;;;;;;4954944;29;20805;-76
2021/12/14 16:19:21;;;;;;;26.47;14.70;;;6.60;99.90;;;;;;4954561;29;20992;-76
2021/12/14 16:21:48;;;;;;;27.77;15.13;;;6.60;99.90;;;;;;4954804;29;20477;-76
2021/12/14 16:24:17;;;;;;;27.87;15.40;;;6.60;99.90;;;;;;4954679;29;20531;-77
2021/12/14 16:26:50;;;;;;;27.60;15.57;;;6.70;99.90;;;;;;4954636;29;20523;-77
2021/12/14 16:29:17;;;;;;;23.43;14.30;;;6.70;99.90;;;;;;4954280;29;21096;-77
2021/12/14 16:31:44;;;;;;;25.73;15.20;;;6.70;99.90;;;;;;4953560;28;20564;-76
2021/12/14 16:34:14;;;;;;;24.33;16.50;;;6.70;99.90;;;;;;4954484;29;20459;-76
2021/12/14 16:36:43;;;;;;;25.07;16.10;;;6.70;99.90;;;;;;4954476;28;20456;-76
2021/12/14 16:39:15;;;;;;;28.80;16.20;;;6.80;99.90;;;;;;4954059;28;20449;-76
2021/12/14 16:41:46;;;;;;;26.80;16.53;;;6.80;99.90;;;;;;4954410;29;20528;-77
2021/12/14 16:44:17;;;;;;;29.17;17.10;;;6.80;99.90;;;;;;4954296;29;20520;-77
2021/12/14 16:46:48;;;;;;;27.03;14.80;;;6.80;99.90;;;;;;4954523;29;20457;-76
2021/12/14 16:49:20;;;;;;;25.70;15.20;;;6.80;99.90;;;;;;4954074;29;20585;-77
2021/12/14 16:51:51;;;;;;;30.23;16.47;;;6.80;99.90;;;;;;4954149;29;20498;-76
2021/12/14 16:54:18;;;;;;;30.60;18.70;;;6.80;99.90;;;;;;4955683;28;20521;-76
2021/12/14 16:56:52;;;;;;;47.47;26.80;;;6.80;99.90;;;;;;4954107;29;20869;-76
2021/12/14 16:59:22;;;;;;;37.07;20.33;;;6.70;99.90;;;;;;4953934;29;20540;-76
2021/12/14 17:01:52;;;;;;;32.50;18.83;;;6.70;99.90;;;;;;4953993;29;20523;-76
2021/12/14 17:04:22;;;;;;;30.23;17.27;;;6.60;99.90;;;;;;4959617;28;20463;-76
2021/12/14 17:06:51;;;;;;;31.63;18.93;;;6.50;99.90;;;;;;4973404;28;20543;-77
2021/12/14 17:09:20;;;;;;;32.93;18.13;;;6.50;99.90;;;;;;4972939;28;20527;-76
2021/12/14 17:11:50;;;;;;;38.20;23.40;;;6.50;99.90;;;;;;4973111;28;20539;-76
2021/12/14 17:14:24;;;;;;;36.83;20.57;;;6.50;99.90;;;;;;4973068;28;20977;-76
2021/12/14 17:16:54;;;;;;;35.40;20.17;;;6.50;99.90;;;;;;5012329;23;20499;-78
2021/12/14 17:19:21;;;;;;;39.13;18.43;;;6.50;99.90;;;;;;4973709;28;20952;-78
2021/12/14 17:21:53;;;;;;;42.00;22.93;;;6.50;99.90;;;;;;4972910;28;20542;-78
2021/12/14 17:24:23;;;;;;;42.03;21.80;;;6.60;99.90;;;;;;4973760;28;20452;-78
2021/12/14 17:26:56;;;;;;;36.40;20.70;;;6.60;99.90;;;;;;4958925;28;20504;-78
2021/12/14 17:29:27;;;;;;;34.53;20.20;;;6.60;99.90;;;;;;4954489;29;20528;-79
2021/12/14 17:31:56;;;;;;;34.93;20.43;;;6.70;99.90;;;;;;4949150;29;20462;-79
2021/12/14 17:34:26;;;;;;;39.50;20.93;;;6.60;99.90;;;;;;4936029;29;20486;-78
2021/12/14 17:36:57;;;;;;;33.97;21.60;;;6.70;99.90;;;;;;4936060;29;21062;-78
2021/12/14 17:39:29;;;;;;;39.73;22.30;;;6.70;99.90;;;;;;4944134;29;20483;-78
2021/12/14 17:42:01;;;;;;;39.93;22.80;;;6.70;99.90;;;;;;4956382;29;20461;-78
2021/12/14 17:44:32;;;;;;;46.40;22.80;;;6.70;99.90;;;;;;4957889;28;20464;-79
2021/12/14 17:47:05;;;;;;;48.90;23.70;;;6.70;99.90;;;;;;4961808;29;20476;-78
2021/12/14 17:49:34;;;;;;;42.37;20.60;;;6.70;99.90;;;;;;4961468;29;20492;-78
2021/12/14 17:52:06;;;;;;;50.67;22.37;;;6.60;99.90;;;;;;4961881;29;20489;-78
2021/12/14 17:54:36;;;;;;;49.50;20.47;;;6.60;99.90;;;;;;4960900;28;20464;-78
2021/12/14 17:57:13;;;;;;;50.67;22.47;;;6.60;99.90;;;;;;4962151;29;20508;-80
2021/12/14 17:59:44;;;;;;;49.17;21.40;;;6.60;99.90;;;;;;4961605;29;20484;-78
2021/12/14 18:02:13;;;;;;;61.43;24.70;;;6.50;99.90;;;;;;4961883;29;20448;-77
2021/12/14 18:04:40;;;;;;;48.83;22.73;;;6.40;99.90;;;;;;4963021;29;20836;-78
2021/12/14 18:07:09;;;;;;;70.17;34.03;;;6.40;99.90;;;;;;4963062;28;20472;-78
2021/12/14 18:09:39;;;;;;;56.20;24.40;;;6.30;99.90;;;;;;4961491;29;20497;-78
2021/12/14 18:12:09;;;;;;;56.23;24.47;;;6.30;99.90;;;;;;4961771;29;20453;-77
2021/12/14 18:14:44;;;;;;;54.87;23.67;;;6.30;99.90;;;;;;4963052;29;20452;-79
2021/12/14 18:17:19;;;;;;;59.53;24.03;;;6.30;99.90;;;;;;4960180;29;20866;-80